sensor_id;sensor_type;location;lat;lon;timestamp;pressure;altitude;pressure_sealevel;temperature;humidity
66486;BME280;53303;47.476;8.084;2022-10-31T00:00:46;96979.00;;;21.54;46.01
66486;BME280;53303;47.476;8.084;2022-10-31T00:03:11;96976.22;;;21.54;45.99
66486;BME280;53303;47.476;8.084;2022-10-31T00:05:40;96971.03;;;21.47;45.96
66486;BME280;53303;47.476;8.084;2022-10-31T00:08:10;96980.72;;;21.52;46.05
66486;BME280;53303;47.476;8.084;2022-10-31T00:10:39;96975.94;;;21.52;45.95
66486;BME280;53303;47.476;8.084;2022-10-31T00:13:06;96976.69;;;21.53;45.88
66486;BME280;53303;47.476;8.084;2022-10-31T00:15:37;96979.19;;;21.51;45.90
66486;BME280;53303;47.476;8.084;2022-10-31T00:18:04;96976.41;;;21.51;45.90
66486;BME280;53303;47.476;8.084;2022-10-31T00:20:32;96976.88;;;21.49;45.80
66486;BME280;53303;47.476;8.084;2022-10-31T00:25:27;96983.19;;;21.49;45.85
66486;BME280;53303;47.476;8.084;2022-10-31T00:30:18;96964.91;;;21.43;45.74
66486;BME280;53303;47.476;8.084;2022-10-31T00:32:43;96977.84;;;21.46;45.50
66486;BME280;53303;47.476;8.084;2022-10-31T00:35:09;96971.53;;;21.45;45.80
66486;BME280;53303;47.476;8.084;2022-10-31T00:37:34;96980.63;;;21.46;45.66
66486;BME280;53303;47.476;8.084;2022-10-31T00:40:00;96978.31;;;21.44;45.69
66486;BME280;53303;47.476;8.084;2022-10-31T00:42:25;96972.75;;;21.44;45.58
66486;BME280;53303;47.476;8.084;2022-10-31T00:44:51;96965.84;;;21.40;45.90
66486;BME280;53303;47.476;8.084;2022-10-31T00:47:16;96974.00;;;21.43;45.51
66486;BME280;53303;47.476;8.084;2022-10-31T00:49:42;96974.00;;;21.43;45.58
66486;BME280;53303;47.476;8.084;2022-10-31T00:52:10;96969.66;;;21.42;45.54
66486;BME280;53303;47.476;8.084;2022-10-31T00:54:35;96972.94;;;21.41;45.61
66486;BME280;53303;47.476;8.084;2022-10-31T00:57:00;96970.16;;;21.41;45.40
66486;BME280;53303;47.476;8.084;2022-10-31T00:59:26;96963.34;;;21.42;45.69
66486;BME280;53303;47.476;8.084;2022-10-31T01:01:54;96948.91;;;21.38;45.78
66486;BME280;53303;47.476;8.084;2022-10-31T01:04:19;96965.38;;;21.41;45.34
66486;BME280;53303;47.476;8.084;2022-10-31T01:06:45;96968.06;;;21.36;45.54
66486;BME280;53303;47.476;8.084;2022-10-31T01:09:10;96964.31;;;21.39;45.57
66486;BME280;53303;47.476;8.084;2022-10-31T01:11:35;96956.16;;;21.35;45.43
66486;BME280;53303;47.476;8.084;2022-10-31T01:14:01;96963.75;;;21.35;45.35
66486;BME280;53303;47.476;8.084;2022-10-31T01:16:27;96959.41;;;21.34;45.36
66486;BME280;53303;47.476;8.084;2022-10-31T01:18:54;96962.78;;;21.38;45.28
66486;BME280;53303;47.476;8.084;2022-10-31T01:21:26;96962.78;;;21.38;45.19
66486;BME280;53303;47.476;8.084;2022-10-31T01:23:55;96966.81;;;21.37;45.16
66486;BME280;53303;47.476;8.084;2022-10-31T01:26:26;96965.28;;;21.36;45.37
66486;BME280;53303;47.476;8.084;2022-10-31T01:28:59;96949.78;;;21.29;45.19
66486;BME280;53303;47.476;8.084;2022-10-31T01:31:29;96960.97;;;21.35;45.09
66486;BME280;53303;47.476;8.084;2022-10-31T01:33:57;96957.44;;;21.34;45.16
66486;BME280;53303;47.476;8.084;2022-10-31T01:38:59;96957.91;;;21.33;45.26
66486;BME280;53303;47.476;8.084;2022-10-31T01:41:28;96964.22;;;21.33;45.12
66486;BME280;53303;47.476;8.084;2022-10-31T01:46:27;96950.06;;;21.31;45.16
66486;BME280;53303;47.476;8.084;2022-10-31T01:48:55;96954.84;;;21.30;45.25
66486;BME280;53303;47.476;8.084;2022-10-31T01:51:26;96957.63;;;21.30;44.97
66486;BME280;53303;47.476;8.084;2022-10-31T01:53:56;96947.75;;;21.29;44.89
66486;BME280;53303;47.476;8.084;2022-10-31T01:56:23;96942.38;;;21.26;44.97
66486;BME280;53303;47.476;8.084;2022-10-31T01:58:53;96947.75;;;21.29;45.05
66486;BME280;53303;47.476;8.084;2022-10-31T02:01:20;96937.78;;;21.23;45.05
66486;BME280;53303;47.476;8.084;2022-10-31T02:03:46;96933.31;;;21.25;44.96
66486;BME280;53303;47.476;8.084;2022-10-31T02:06:51;96942.31;;;21.20;45.08
66486;BME280;53303;47.476;8.084;2022-10-31T02:09:19;96936.09;;;21.25;45.15
66486;BME280;53303;47.476;8.084;2022-10-31T02:11:51;96930.72;;;21.22;45.02
66486;BME280;53303;47.476;8.084;2022-10-31T02:14:17;96934.06;;;21.26;44.97
66486;BME280;53303;47.476;8.084;2022-10-31T02:16:43;96926.41;;;21.21;45.03
66486;BME280;53303;47.476;8.084;2022-10-31T02:19:14;96921.03;;;21.17;45.05
66486;BME280;53303;47.476;8.084;2022-10-31T02:22:09;96935.22;;;21.19;44.92
66486;BME280;53303;47.476;8.084;2022-10-31T02:41:04;96923.53;;;21.15;44.76
66486;BME280;53303;47.476;8.084;2022-10-31T02:46:44;96919.25;;;21.14;45.01
66486;BME280;53303;47.476;8.084;2022-10-31T02:49:27;96927.06;;;21.16;44.75
66486;BME280;53303;47.476;8.084;2022-10-31T02:51:54;96921.72;;;21.12;44.96
66486;BME280;53303;47.476;8.084;2022-10-31T02:54:25;96912.16;;;21.13;44.85
66486;BME280;53303;47.476;8.084;2022-10-31T02:56:57;96914.44;;;21.15;44.91
66486;BME280;53303;47.476;8.084;2022-10-31T02:59:25;96906.78;;;21.09;44.98
66486;BME280;53303;47.476;8.084;2022-10-31T03:12:49;96887.66;;;20.97;44.84
66486;BME280;53303;47.476;8.084;2022-10-31T03:18:05;96914.84;;;21.07;44.79
66486;BME280;53303;47.476;8.084;2022-10-31T03:21:20;96914.75;;;21.02;44.68
66486;BME280;53303;47.476;8.084;2022-10-31T03:23:49;96917.34;;;21.05;44.77
66486;BME280;53303;47.476;8.084;2022-10-31T03:26:16;96907.47;;;21.04;44.75
66486;BME280;53303;47.476;8.084;2022-10-31T03:28:57;96906.41;;;21.02;44.70
66486;BME280;53303;47.476;8.084;2022-10-31T03:31:32;96915.31;;;21.06;44.74
66486;BME280;53303;47.476;8.084;2022-10-31T03:34:00;96915.03;;;21.04;44.52
66486;BME280;53303;47.476;8.084;2022-10-31T03:36:29;96920.38;;;21.07;44.48
66486;BME280;53303;47.476;8.084;2022-10-31T03:38:57;96913.28;;;21.06;44.74
66486;BME280;53303;47.476;8.084;2022-10-31T03:41:28;96909.00;;;21.05;44.54
66486;BME280;53303;47.476;8.084;2022-10-31T03:44:06;96913.47;;;21.03;44.30
66486;BME280;53303;47.476;8.084;2022-10-31T03:46:33;96911.78;;;21.05;44.77
66486;BME280;53303;47.476;8.084;2022-10-31T03:48:59;96917.34;;;21.05;44.47
66486;BME280;53303;47.476;8.084;2022-10-31T03:54:09;96907.94;;;21.03;44.54
66486;BME280;53303;47.476;8.084;2022-10-31T03:56:49;96900.00;;;20.96;44.46
66486;BME280;53303;47.476;8.084;2022-10-31T03:59:36;96901.72;;;20.93;44.53
66486;BME280;53303;47.476;8.084;2022-10-31T04:02:12;96904.88;;;21.01;44.71
66486;BME280;53303;47.476;8.084;2022-10-31T04:04:39;96892.53;;;21.02;44.50
66486;BME280;53303;47.476;8.084;2022-10-31T04:07:09;96899.03;;;20.99;44.41
66486;BME280;53303;47.476;8.084;2022-10-31T04:09:37;96897.78;;;21.00;44.59
66486;BME280;53303;47.476;8.084;2022-10-31T04:12:05;96888.91;;;20.96;44.26
66486;BME280;53303;47.476;8.084;2022-10-31T04:14:37;96893.41;;;20.93;44.37
66486;BME280;53303;47.476;8.084;2022-10-31T04:17:05;96903.34;;;21.00;44.26
66486;BME280;53303;47.476;8.084;2022-10-31T04:19:33;96900.28;;;20.98;44.40
66486;BME280;53303;47.476;8.084;2022-10-31T04:21:58;96900.28;;;20.98;44.47
66486;BME280;53303;47.476;8.084;2022-10-31T04:24:24;96901.53;;;20.97;44.40
66486;BME280;53303;47.476;8.084;2022-10-31T04:26:49;96895.19;;;20.96;44.50
66486;BME280;53303;47.476;8.084;2022-10-31T04:29:15;96892.34;;;20.90;44.39
66486;BME280;53303;47.476;8.084;2022-10-31T04:31:40;96888.03;;;20.89;44.19
66486;BME280;53303;47.476;8.084;2022-10-31T04:34:05;96871.41;;;20.89;44.44
66486;BME280;53303;47.476;8.084;2022-10-31T04:36:35;96884.59;;;20.95;44.50
66486;BME280;53303;47.476;8.084;2022-10-31T04:39:00;96878.94;;;20.89;44.31
66486;BME280;53303;47.476;8.084;2022-10-31T04:41:28;96883.34;;;20.96;44.28
66486;BME280;53303;47.476;8.084;2022-10-31T04:43:54;96876.47;;;20.91;44.33
66486;BME280;53303;47.476;8.084;2022-10-31T04:46:19;96880.75;;;20.92;44.35
66486;BME280;53303;47.476;8.084;2022-10-31T04:48:44;96875.97;;;20.92;44.30
66486;BME280;53303;47.476;8.084;2022-10-31T04:51:10;96877.69;;;20.90;44.46
66486;BME280;53303;47.476;8.084;2022-10-31T04:53:36;96870.41;;;20.92;44.47
66486;BME280;53303;47.476;8.084;2022-10-31T04:56:04;96875.97;;;20.92;44.54
66486;BME280;53303;47.476;8.084;2022-10-31T04:58:29;96867.38;;;20.90;44.21
66486;BME280;53303;47.476;8.084;2022-10-31T05:00:55;96874.44;;;20.91;44.24
66486;BME280;53303;47.476;8.084;2022-10-31T05:03:23;96870.34;;;20.87;44.69
66486;BME280;53303;47.476;8.084;2022-10-31T05:05:49;96862.00;;;20.87;46.33
66486;BME280;53303;47.476;8.084;2022-10-31T05:08:14;96852.44;;;20.88;46.88
66486;BME280;53303;47.476;8.084;2022-10-31T05:10:40;96865.19;;;20.95;47.11
66486;BME280;53303;47.476;8.084;2022-10-31T05:13:08;96855.78;;;20.92;47.59
66486;BME280;53303;47.476;8.084;2022-10-31T05:15:34;96864.19;;;20.98;47.73
66486;BME280;53303;47.476;8.084;2022-10-31T05:17:59;96860.66;;;20.97;46.93
66486;BME280;53303;47.476;8.084;2022-10-31T05:20:27;96865.00;;;20.98;46.47
66486;BME280;53303;47.476;8.084;2022-10-31T05:22:55;96863.16;;;20.95;46.25
66486;BME280;53303;47.476;8.084;2022-10-31T05:25:22;96860.09;;;20.93;45.69
66486;BME280;53303;47.476;8.084;2022-10-31T05:27:50;96857.81;;;20.91;45.65
66486;BME280;53303;47.476;8.084;2022-10-31T05:30:21;96855.41;;;20.84;45.48
66486;BME280;53303;47.476;8.084;2022-10-31T05:32:48;96854.47;;;20.87;45.20
66486;BME280;53303;47.476;8.084;2022-10-31T05:35:16;96860.50;;;20.86;45.06
66486;BME280;53303;47.476;8.084;2022-10-31T05:37:42;96852.84;;;20.81;44.93
66486;BME280;53303;47.476;8.084;2022-10-31T05:40:10;96854.53;;;20.78;44.55
66486;BME280;53303;47.476;8.084;2022-10-31T05:42:39;96855.13;;;20.82;44.47
66486;BME280;53303;47.476;8.084;2022-10-31T05:45:09;96849.31;;;20.80;44.32
66486;BME280;53303;47.476;8.084;2022-10-31T05:47:35;96834.56;;;20.74;44.22
66486;BME280;53303;47.476;8.084;2022-10-31T05:50:00;96840.84;;;20.75;44.22
66486;BME280;53303;47.476;8.084;2022-10-31T05:52:26;96843.34;;;20.72;43.89
66486;BME280;53303;47.476;8.084;2022-10-31T05:54:53;96831.41;;;20.66;43.75
66486;BME280;53303;47.476;8.084;2022-10-31T05:57:18;96850.16;;;20.71;43.88
66486;BME280;53303;47.476;8.084;2022-10-31T05:59:44;96843.53;;;20.69;43.54
66486;BME280;53303;47.476;8.084;2022-10-31T06:02:09;96842.31;;;20.70;43.54
66486;BME280;53303;47.476;8.084;2022-10-31T06:04:35;96823.28;;;20.63;43.62
66486;BME280;53303;47.476;8.084;2022-10-31T06:07:00;96841.53;;;20.69;43.45
66486;BME280;53303;47.476;8.084;2022-10-31T06:09:26;96837.72;;;20.67;43.56
66486;BME280;53303;47.476;8.084;2022-10-31T06:11:51;96849.56;;;20.67;43.11
66486;BME280;53303;47.476;8.084;2022-10-31T06:14:17;96845.00;;;20.64;43.23
66486;BME280;53303;47.476;8.084;2022-10-31T06:16:42;96840.97;;;20.65;43.48
66486;BME280;53303;47.476;8.084;2022-10-31T06:19:08;96848.53;;;20.65;43.21
66486;BME280;53303;47.476;8.084;2022-10-31T06:21:34;96842.38;;;20.61;43.29
66486;BME280;53303;47.476;8.084;2022-10-31T06:24:01;96850.69;;;20.61;42.95
66486;BME280;53303;47.476;8.084;2022-10-31T06:26:27;96850.22;;;20.62;43.12
66486;BME280;53303;47.476;8.084;2022-10-31T06:28:55;96848.72;;;20.61;42.97
66486;BME280;53303;47.476;8.084;2022-10-31T06:31:20;96844.84;;;20.59;42.93
66486;BME280;53303;47.476;8.084;2022-10-31T06:33:45;96839.78;;;20.57;43.08
66486;BME280;53303;47.476;8.084;2022-10-31T06:36:11;96848.41;;;20.59;42.96
66486;BME280;53303;47.476;8.084;2022-10-31T06:38:39;96850.38;;;20.59;43.29
66486;BME280;53303;47.476;8.084;2022-10-31T06:41:05;96855.16;;;20.58;42.97
66486;BME280;53303;47.476;8.084;2022-10-31T06:43:31;96859.19;;;20.57;42.94
66486;BME280;53303;47.476;8.084;2022-10-31T06:45:57;96855.06;;;20.52;43.00
66486;BME280;53303;47.476;8.084;2022-10-31T06:48:23;96861.38;;;20.53;43.18
66486;BME280;53303;47.476;8.084;2022-10-31T06:50:48;96870.78;;;20.56;43.21
66486;BME280;53303;47.476;8.084;2022-10-31T06:53:14;96865.41;;;20.52;43.02
66486;BME280;53303;47.476;8.084;2022-10-31T06:55:41;96861.38;;;20.53;43.05
66486;BME280;53303;47.476;8.084;2022-10-31T06:58:08;96853.25;;;20.49;43.03
66486;BME280;53303;47.476;8.084;2022-10-31T07:00:37;96858.31;;;20.51;43.11
66486;BME280;53303;47.476;8.084;2022-10-31T07:03:05;96859.88;;;20.52;42.91
66486;BME280;53303;47.476;8.084;2022-10-31T07:05:31;96827.53;;;20.34;43.12
66486;BME280;53303;47.476;8.084;2022-10-31T07:08:02;96842.06;;;20.44;43.25
66486;BME280;53303;47.476;8.084;2022-10-31T07:10:30;96858.31;;;20.51;43.19
66486;BME280;53303;47.476;8.084;2022-10-31T07:13:01;96847.41;;;20.47;43.22
66486;BME280;53303;47.476;8.084;2022-10-31T07:15:29;96853.53;;;20.51;43.29
66486;BME280;53303;47.476;8.084;2022-10-31T07:18:04;96848.84;;;20.43;43.45
66486;BME280;53303;47.476;8.084;2022-10-31T07:20:30;96852.50;;;20.49;43.17
66486;BME280;53303;47.476;8.084;2022-10-31T07:22:57;96861.84;;;20.51;43.50
66486;BME280;53303;47.476;8.084;2022-10-31T07:25:23;96863.88;;;20.51;43.56
66486;BME280;53303;47.476;8.084;2022-10-31T07:27:49;96859.44;;;20.44;43.40
66486;BME280;53303;47.476;8.084;2022-10-31T07:30:14;96865.78;;;20.45;43.61
66486;BME280;53303;47.476;8.084;2022-10-31T07:32:47;96871.13;;;20.48;43.77
66486;BME280;53303;47.476;8.084;2022-10-31T07:35:18;96865.50;;;20.43;43.71
66486;BME280;53303;47.476;8.084;2022-10-31T07:37:44;96878.66;;;20.48;43.83
66486;BME280;53303;47.476;8.084;2022-10-31T07:40:10;96878.66;;;20.48;43.92
66486;BME280;53303;47.476;8.084;2022-10-31T07:42:36;96876.69;;;20.48;44.26
66486;BME280;53303;47.476;8.084;2022-10-31T07:45:04;96875.91;;;20.48;44.10
66486;BME280;53303;47.476;8.084;2022-10-31T07:47:29;96879.00;;;20.50;44.21
66486;BME280;53303;47.476;8.084;2022-10-31T07:49:55;96877.44;;;20.49;44.27
66486;BME280;53303;47.476;8.084;2022-10-31T07:52:20;96851.97;;;20.35;44.56
66486;BME280;53303;47.476;8.084;2022-10-31T07:54:51;96873.13;;;20.48;44.53
66486;BME280;53303;47.476;8.084;2022-10-31T07:57:16;96873.13;;;20.48;44.40
66486;BME280;53303;47.476;8.084;2022-10-31T07:59:42;96873.63;;;20.46;44.70
66486;BME280;53303;47.476;8.084;2022-10-31T08:02:08;96882.69;;;20.47;44.70
66486;BME280;53303;47.476;8.084;2022-10-31T08:04:33;96886.53;;;20.49;44.97
66486;BME280;53303;47.476;8.084;2022-10-31T08:06:59;96870.84;;;20.46;45.02
66486;BME280;53303;47.476;8.084;2022-10-31T08:09:24;96877.16;;;20.47;45.13
66486;BME280;53303;47.476;8.084;2022-10-31T08:11:50;96875.72;;;20.51;45.11
66486;BME280;53303;47.476;8.084;2022-10-31T08:14:15;96877.25;;;20.52;45.35
66486;BME280;53303;47.476;8.084;2022-10-31T08:16:40;96880.03;;;20.52;45.55
66486;BME280;53303;47.476;8.084;2022-10-31T08:19:08;96876.03;;;20.53;45.30
66486;BME280;53303;47.476;8.084;2022-10-31T08:21:36;96874.47;;;20.52;45.54
66486;BME280;53303;47.476;8.084;2022-10-31T08:24:01;96866.06;;;20.47;45.60
66486;BME280;53303;47.476;8.084;2022-10-31T08:26:29;96868.38;;;20.48;45.63
66486;BME280;53303;47.476;8.084;2022-10-31T08:28:54;96874.00;;;20.54;45.81
66486;BME280;53303;47.476;8.084;2022-10-31T08:31:20;96873.72;;;20.52;45.94
66486;BME280;53303;47.476;8.084;2022-10-31T08:33:46;96873.25;;;20.53;45.91
66486;BME280;53303;47.476;8.084;2022-10-31T08:36:11;96877.72;;;20.51;46.14
66486;BME280;53303;47.476;8.084;2022-10-31T08:38:41;96877.06;;;20.56;46.26
66486;BME280;53303;47.476;8.084;2022-10-31T08:41:09;96872.75;;;20.55;46.29
66486;BME280;53303;47.476;8.084;2022-10-31T08:43:34;96872.47;;;20.53;46.37
66486;BME280;53303;47.476;8.084;2022-10-31T08:45:59;96864.06;;;20.47;46.36
66486;BME280;53303;47.476;8.084;2022-10-31T08:48:25;96866.16;;;20.52;46.33
66486;BME280;53303;47.476;8.084;2022-10-31T08:50:50;96856.50;;;20.48;46.65
66486;BME280;53303;47.476;8.084;2022-10-31T08:53:18;96863.69;;;20.54;46.69
66486;BME280;53303;47.476;8.084;2022-10-31T08:55:45;96872.56;;;20.59;46.62
66486;BME280;53303;47.476;8.084;2022-10-31T08:58:15;96864.75;;;20.57;46.49
66486;BME280;53303;47.476;8.084;2022-10-31T09:00:42;96859.97;;;20.58;46.64
66486;BME280;53303;47.476;8.084;2022-10-31T09:03:16;96861.19;;;20.57;46.86
66486;BME280;53303;47.476;8.084;2022-10-31T09:05:42;96857.38;;;20.54;46.66
66486;BME280;53303;47.476;8.084;2022-10-31T09:08:08;96858.41;;;20.57;46.71
66486;BME280;53303;47.476;8.084;2022-10-31T09:10:35;96856.25;;;20.61;46.96
66486;BME280;53303;47.476;8.084;2022-10-31T09:13:07;96847.44;;;20.62;46.96
66486;BME280;53303;47.476;8.084;2022-10-31T09:15:36;96707.25;;;19.63;46.97
66486;BME280;53303;47.476;8.084;2022-10-31T09:18:08;96729.56;;;19.83;47.25
66486;BME280;53303;47.476;8.084;2022-10-31T09:20:35;96766.03;;;20.21;47.29
66486;BME280;53303;47.476;8.084;2022-10-31T09:23:09;96834.66;;;20.65;47.29
66486;BME280;53303;47.476;8.084;2022-10-31T09:25:43;96820.84;;;20.56;47.21
66486;BME280;53303;47.476;8.084;2022-10-31T09:28:16;96650.75;;;19.30;47.44
66486;BME280;53303;47.476;8.084;2022-10-31T09:30:46;96664.56;;;19.54;47.35
66486;BME280;53303;47.476;8.084;2022-10-31T09:33:15;96750.94;;;20.22;47.43
66486;BME280;53303;47.476;8.084;2022-10-31T09:35:43;96682.34;;;19.63;47.54
66486;BME280;53303;47.476;8.084;2022-10-31T09:38:14;96635.13;;;19.42;47.47
66486;BME280;53303;47.476;8.084;2022-10-31T09:40:48;96716.53;;;19.99;47.54
66486;BME280;53303;47.476;8.084;2022-10-31T09:46:44;96813.69;;;20.64;47.48
66486;BME280;53303;47.476;8.084;2022-10-31T09:52:14;96819.06;;;20.67;47.77
66486;BME280;53303;47.476;8.084;2022-10-31T09:54:52;96761.56;;;20.23;47.93
66486;BME280;53303;47.476;8.084;2022-10-31T09:57:27;96708.59;;;19.91;47.99
66486;BME280;53303;47.476;8.084;2022-10-31T09:59:55;96639.72;;;19.45;48.24
66486;BME280;53303;47.476;8.084;2022-10-31T10:02:56;96706.75;;;19.88;48.13
66486;BME280;53303;47.476;8.084;2022-10-31T10:05:48;96743.38;;;20.22;48.00
66486;BME280;53303;47.476;8.084;2022-10-31T10:08:23;96689.66;;;19.90;48.29
66486;BME280;53303;47.476;8.084;2022-10-31T10:22:45;96811.59;;;20.73;48.76
66486;BME280;53303;47.476;8.084;2022-10-31T10:25:31;96690.53;;;19.96;48.34
66486;BME280;53303;47.476;8.084;2022-10-31T10:30:49;96704.19;;;20.00;48.65
66486;BME280;53303;47.476;8.084;2022-10-31T10:33:40;96685.91;;;19.78;48.54
66486;BME280;53303;47.476;8.084;2022-10-31T10:36:14;96631.81;;;19.53;48.71
66486;BME280;53303;47.476;8.084;2022-10-31T10:38:54;96808.84;;;20.73;48.40
66486;BME280;53303;47.476;8.084;2022-10-31T10:41:26;96806.53;;;20.72;48.50
66486;BME280;53303;47.476;8.084;2022-10-31T10:43:53;96649.31;;;19.59;48.63
66486;BME280;53303;47.476;8.084;2022-10-31T10:46:43;96818.97;;;20.77;48.50
66486;BME280;53303;47.476;8.084;2022-10-31T10:50:09;96691.28;;;19.82;48.54
66486;BME280;53303;47.476;8.084;2022-10-31T10:58:01;96797.75;;;20.73;48.41
66486;BME280;53303;47.476;8.084;2022-10-31T11:00:31;96760.31;;;20.54;48.52
66486;BME280;53303;47.476;8.084;2022-10-31T11:02:57;96599.34;;;19.38;48.28
66486;BME280;53303;47.476;8.084;2022-10-31T11:08:10;96749.72;;;20.38;48.18
66486;BME280;53303;47.476;8.084;2022-10-31T11:10:37;96750.09;;;20.30;48.45
66486;BME280;53303;47.476;8.084;2022-10-31T11:13:05;96803.00;;;20.86;48.47
66486;BME280;53303;47.476;8.084;2022-10-31T11:15:35;96756.88;;;20.59;48.60
66486;BME280;53303;47.476;8.084;2022-10-31T11:18:01;96787.78;;;20.82;48.79
66486;BME280;53303;47.476;8.084;2022-10-31T11:20:32;96799.25;;;20.89;48.65
66486;BME280;53303;47.476;8.084;2022-10-31T11:23:19;96784.25;;;20.81;48.83
66486;BME280;53303;47.476;8.084;2022-10-31T11:28:15;96773.31;;;20.92;48.95
66486;BME280;53303;47.476;8.084;2022-10-31T11:30:47;96757.56;;;20.84;48.92
66486;BME280;53303;47.476;8.084;2022-10-31T11:33:17;96760.22;;;20.78;49.30
66486;BME280;53303;47.476;8.084;2022-10-31T11:35:44;96750.84;;;20.90;49.14
66486;BME280;53303;47.476;8.084;2022-10-31T11:38:19;96724.88;;;20.73;49.01
66486;BME280;53303;47.476;8.084;2022-10-31T11:41:14;96752.72;;;20.99;48.63
66486;BME280;53303;47.476;8.084;2022-10-31T11:43:38;96741.56;;;20.94;48.82
66486;BME280;53303;47.476;8.084;2022-10-31T11:46:14;96742.59;;;20.96;48.82
66486;BME280;53303;47.476;8.084;2022-10-31T11:48:49;96735.88;;;21.03;48.88
66486;BME280;53303;47.476;8.084;2022-10-31T11:51:29;96742.03;;;21.07;48.86
66486;BME280;53303;47.476;8.084;2022-10-31T11:53:57;96724.09;;;21.08;48.80
66486;BME280;53303;47.476;8.084;2022-10-31T11:56:24;96727.44;;;21.12;49.07
66486;BME280;53303;47.476;8.084;2022-10-31T11:58:57;96713.56;;;21.12;48.99
66486;BME280;53303;47.476;8.084;2022-10-31T12:01:31;96705.22;;;21.12;49.08
66486;BME280;53303;47.476;8.084;2022-10-31T12:04:09;96707.13;;;21.21;49.12
66486;BME280;53303;47.476;8.084;2022-10-31T12:06:37;96696.78;;;21.21;49.15
66486;BME280;53303;47.476;8.084;2022-10-31T12:39:44;96646.31;;;21.43;49.01
66486;BME280;53303;47.476;8.084;2022-10-31T12:59:01;96597.31;;;21.61;49.21
66486;BME280;53303;47.476;8.084;2022-10-31T13:01:38;96589.19;;;21.57;49.04
66486;BME280;53303;47.476;8.084;2022-10-31T13:04:18;96588.28;;;21.66;49.22
66486;BME280;53303;47.476;8.084;2022-10-31T13:06:49;96589.31;;;21.68;49.24
66486;BME280;53303;47.476;8.084;2022-10-31T13:09:21;96573.34;;;21.63;49.21
66486;BME280;53303;47.476;8.084;2022-10-31T13:11:56;96589.84;;;21.73;49.41
66486;BME280;53303;47.476;8.084;2022-10-31T13:14:26;96587.34;;;21.75;49.48
66486;BME280;53303;47.476;8.084;2022-10-31T13:16:55;96582.06;;;21.77;49.13
66486;BME280;53303;47.476;8.084;2022-10-31T13:19:25;96579.56;;;21.79;49.13
66486;BME280;53303;47.476;8.084;2022-10-31T13:27:22;96577.31;;;21.83;49.49
66486;BME280;53303;47.476;8.084;2022-10-31T13:30:11;96573.91;;;21.67;49.59
66486;BME280;53303;47.476;8.084;2022-10-31T13:32:42;96572.72;;;21.80;49.55
66486;BME280;53303;47.476;8.084;2022-10-31T13:35:16;96558.13;;;21.85;49.45
66486;BME280;53303;47.476;8.084;2022-10-31T13:37:52;96534.34;;;21.78;49.32
66486;BME280;53303;47.476;8.084;2022-10-31T13:42:57;96522.78;;;21.85;49.43
66486;BME280;53303;47.476;8.084;2022-10-31T13:45:25;96526.84;;;21.90;49.44
66486;BME280;53303;47.476;8.084;2022-10-31T13:50:30;96535.44;;;21.92;49.23
66486;BME280;53303;47.476;8.084;2022-10-31T13:55:45;96531.66;;;21.90;49.13
66486;BME280;53303;47.476;8.084;2022-10-31T13:58:26;96533.38;;;21.87;49.40
66486;BME280;53303;47.476;8.084;2022-10-31T14:00:59;96534.97;;;21.94;49.14
66486;BME280;53303;47.476;8.084;2022-10-31T14:03:33;96524.56;;;21.89;49.26
66486;BME280;53303;47.476;8.084;2022-10-31T14:06:00;96514.72;;;21.88;49.29
66486;BME280;53303;47.476;8.084;2022-10-31T14:08:27;96510.19;;;21.90;49.25
66486;BME280;53303;47.476;8.084;2022-10-31T14:10:54;96524.59;;;21.94;49.09
66486;BME280;53303;47.476;8.084;2022-10-31T14:15:58;96521.34;;;21.96;49.33
66486;BME280;53303;47.476;8.084;2022-10-31T14:18:33;96519.34;;;21.96;49.21
66486;BME280;53303;47.476;8.084;2022-10-31T14:20:59;96512.91;;;21.84;49.36
66486;BME280;53303;47.476;8.084;2022-10-31T14:26:19;96514.75;;;21.93;49.31
66486;BME280;53303;47.476;8.084;2022-10-31T14:28:45;96496.03;;;21.88;49.31
66486;BME280;53303;47.476;8.084;2022-10-31T14:33:59;96489.03;;;21.98;49.25
66486;BME280;53303;47.476;8.084;2022-10-31T14:52:30;96481.72;;;22.01;49.04
66486;BME280;53303;47.476;8.084;2022-10-31T14:54:57;96461.69;;;21.91;49.07
66486;BME280;53303;47.476;8.084;2022-10-31T14:57:28;96444.22;;;21.85;48.94
66486;BME280;53303;47.476;8.084;2022-10-31T15:00:01;96465.75;;;21.96;48.95
66486;BME280;53303;47.476;8.084;2022-10-31T15:05:13;96479.19;;;22.03;48.64
66486;BME280;53303;47.476;8.084;2022-10-31T15:07:51;96475.41;;;22.00;48.55
66486;BME280;53303;47.476;8.084;2022-10-31T15:10:36;96469.81;;;21.95;48.91
66486;BME280;53303;47.476;8.084;2022-10-31T15:13:28;96470.06;;;21.97;48.79
66486;BME280;53303;47.476;8.084;2022-10-31T15:15:55;96472.88;;;22.02;48.90
66486;BME280;53303;47.476;8.084;2022-10-31T15:18:24;96466.06;;;22.03;48.92
66486;BME280;53303;47.476;8.084;2022-10-31T15:20:52;96462.50;;;22.03;49.03
66486;BME280;53303;47.476;8.084;2022-10-31T15:23:33;96469.56;;;21.98;48.90
66486;BME280;53303;47.476;8.084;2022-10-31T15:26:03;96474.16;;;22.01;49.08
66486;BME280;53303;47.476;8.084;2022-10-31T15:28:30;96467.28;;;21.97;49.03
66486;BME280;53303;47.476;8.084;2022-10-31T15:30:58;96474.16;;;22.01;49.10
66486;BME280;53303;47.476;8.084;2022-10-31T15:33:26;96474.16;;;22.01;49.06
66486;BME280;53303;47.476;8.084;2022-10-31T15:36:00;96473.06;;;21.93;49.02
66486;BME280;53303;47.476;8.084;2022-10-31T15:38:27;96476.16;;;22.01;49.25
66486;BME280;53303;47.476;8.084;2022-10-31T15:40:57;96476.38;;;21.97;49.30
66486;BME280;53303;47.476;8.084;2022-10-31T15:43:24;96470.78;;;21.92;48.92
66486;BME280;53303;47.476;8.084;2022-10-31T15:45:50;96470.81;;;21.97;49.33
66486;BME280;53303;47.476;8.084;2022-10-31T15:48:18;96469.84;;;22.00;49.10
66486;BME280;53303;47.476;8.084;2022-10-31T15:50:53;96473.09;;;21.99;49.06
66486;BME280;53303;47.476;8.084;2022-10-31T15:53:43;96475.38;;;21.95;49.21
66486;BME280;53303;47.476;8.084;2022-10-31T15:56:12;96471.81;;;21.94;49.15
66486;BME280;53303;47.476;8.084;2022-10-31T15:58:43;96461.97;;;21.93;49.03